createdAt,value
2023-02-26T00:29:36.746Z,1006.86
2023-02-26T00:30:17.102Z,1006.85
2023-02-26T00:30:57.683Z,1006.88
2023-02-26T00:31:38.204Z,1006.86
2023-02-26T00:32:18.689Z,1006.89
2023-02-26T00:32:59.111Z,1006.88
2023-02-26T00:33:39.608Z,1006.91
2023-02-26T00:34:20.099Z,1006.92
2023-02-26T00:35:00.592Z,1006.91
2023-02-26T00:35:41.090Z,1006.92
2023-02-26T00:36:21.553Z,1006.93
2023-02-26T00:37:02.034Z,1006.97
2023-02-26T00:37:42.500Z,1006.93
2023-02-26T00:38:22.965Z,1007
2023-02-26T00:39:03.475Z,1006.94
2023-02-26T00:39:43.989Z,1007.01
2023-02-26T00:40:24.484Z,1007.03
2023-02-26T00:41:04.998Z,1007.04
2023-02-26T00:41:45.489Z,1007.05
2023-02-26T00:42:25.897Z,1007.06
2023-02-26T00:43:06.417Z,1007.08
2023-02-26T00:43:46.924Z,1007.08
2023-02-26T00:44:27.376Z,1007.1
2023-02-26T00:45:07.892Z,1007.12
2023-02-26T00:45:48.376Z,1007.13
2023-02-26T00:46:28.884Z,1007.12
2023-02-26T00:47:09.354Z,1007.11
2023-02-26T00:47:49.881Z,1007.12
2023-02-26T00:48:30.331Z,1007.14
2023-02-26T00:49:10.887Z,1007.15
2023-02-26T00:49:51.319Z,1007.13
2023-02-26T00:50:31.796Z,1007.12
2023-02-26T00:51:12.306Z,1007.15
2023-02-26T00:51:52.777Z,1007.13
2023-02-26T00:52:33.247Z,1007.16
2023-02-26T00:53:13.730Z,1007.14
2023-02-26T00:53:54.270Z,1007.2
2023-02-26T00:54:34.724Z,1007.21
2023-02-26T00:55:15.218Z,1007.19
2023-02-26T00:55:55.693Z,1007.24
2023-02-26T00:56:36.191Z,1007.22
2023-02-26T00:57:16.665Z,1007.25
2023-02-26T00:57:57.156Z,1007.26
2023-02-26T00:58:37.652Z,1007.22
2023-02-26T00:59:58.647Z,1007.22
2023-02-26T01:00:39.156Z,1007.22
2023-02-26T01:01:19.626Z,1007.22
2023-02-26T01:02:00.125Z,1007.22
2023-02-26T01:02:40.587Z,1007.24
2023-02-26T01:03:21.728Z,1007.22
2023-02-26T01:04:01.582Z,1007.25
2023-02-26T01:04:42.053Z,1007.21
2023-02-26T01:05:22.519Z,1007.26
2023-02-26T01:06:03.008Z,1007.22
2023-02-26T01:06:43.481Z,1007.26
2023-02-26T01:07:24.009Z,1007.26
2023-02-26T01:08:04.439Z,1007.29
2023-02-26T01:08:44.933Z,1007.29
2023-02-26T01:09:25.403Z,1007.3
2023-02-26T01:10:05.912Z,1007.31
2023-02-26T01:10:46.444Z,1007.32
2023-02-26T01:11:26.902Z,1007.31
2023-02-26T01:12:07.393Z,1007.34
2023-02-26T01:12:47.896Z,1007.36
2023-02-26T01:13:28.382Z,1007.34
2023-02-26T01:14:08.857Z,1007.36
2023-02-26T01:14:49.327Z,1007.36
2023-02-26T01:15:29.822Z,1007.31
2023-02-26T01:16:10.441Z,1007.33
2023-02-26T01:16:50.810Z,1007.32
2023-02-26T01:17:31.289Z,1007.33
2023-02-26T01:18:11.843Z,1007.33
2023-02-26T01:18:52.330Z,1007.32
2023-02-26T01:19:32.806Z,1007.35
2023-02-26T01:20:13.309Z,1007.39
2023-02-26T01:20:53.749Z,1007.39
2023-02-26T01:21:34.246Z,1007.39
2023-02-26T01:22:14.757Z,1007.39
2023-02-26T01:22:55.213Z,1007.36
2023-02-26T01:23:35.691Z,1007.36
2023-02-26T01:24:16.169Z,1007.38
2023-02-26T01:24:56.727Z,1007.38
2023-02-26T01:25:37.132Z,1007.36
2023-02-26T01:26:17.631Z,1007.35
2023-02-26T01:26:58.160Z,1007.33
2023-02-26T01:27:38.625Z,1007.39
2023-02-26T01:28:19.151Z,1007.39
2023-02-26T01:28:59.643Z,1007.39
2023-02-26T01:29:40.197Z,1007.39
2023-02-26T01:30:20.683Z,1007.39
2023-02-26T01:31:01.372Z,1007.4
2023-02-26T01:31:41.944Z,1007.41
2023-02-26T01:32:22.442Z,1007.39
2023-02-26T01:33:02.738Z,1007.39
2023-02-26T01:33:43.245Z,1007.41
2023-02-26T01:34:23.750Z,1007.43
2023-02-26T01:35:04.242Z,1007.35
2023-02-26T01:35:44.765Z,1007.38
2023-02-26T01:36:25.463Z,1007.37
2023-02-26T01:37:05.666Z,1007.39
2023-02-26T01:37:46.157Z,1007.36
2023-02-26T01:38:26.637Z,1007.39
2023-02-26T01:39:07.146Z,1007.4
2023-02-26T01:39:47.585Z,1007.38
2023-02-26T01:40:28.116Z,1007.37
2023-02-26T01:41:08.547Z,1007.39
2023-02-26T01:41:49.036Z,1007.36
2023-02-26T01:42:29.536Z,1007.34
2023-02-26T01:43:10.715Z,1007.37
2023-02-26T01:43:51.177Z,1007.4
2023-02-26T01:44:31.663Z,1007.38
2023-02-26T01:45:12.200Z,1007.38
2023-02-26T01:45:52.615Z,1007.38
2023-02-26T01:46:33.323Z,1007.37
2023-02-26T01:47:13.692Z,1007.42
2023-02-26T01:47:54.118Z,1007.41
2023-02-26T01:48:34.634Z,1007.42
2023-02-26T01:49:15.126Z,1007.38
2023-02-26T01:49:55.589Z,1007.4
2023-02-26T01:50:36.075Z,1007.42
2023-02-26T01:51:16.601Z,1007.4
2023-02-26T01:51:57.055Z,1007.37
2023-02-26T01:52:37.528Z,1007.34
2023-02-26T01:53:18.013Z,1007.34
2023-02-26T01:53:58.512Z,1007.36
2023-02-26T01:54:38.983Z,1007.34
2023-02-26T01:55:19.479Z,1007.35
2023-02-26T01:56:40.418Z,1007.32
2023-02-26T01:57:20.947Z,1007.33
2023-02-26T01:58:01.426Z,1007.3
2023-02-26T01:58:41.914Z,1007.28
2023-02-26T01:59:22.396Z,1007.25
2023-02-26T02:00:02.873Z,1007.26
2023-02-26T02:00:43.372Z,1007.25
2023-02-26T02:01:23.859Z,1007.22
2023-02-26T02:02:04.338Z,1007.23
2023-02-26T02:02:44.966Z,1007.22
2023-02-26T02:04:05.833Z,1007.2
2023-02-26T02:04:46.337Z,1007.25
2023-02-26T02:05:26.865Z,1007.23
2023-02-26T02:08:40.655Z,1007.27
2023-02-26T02:09:21.013Z,1007.3
2023-02-26T02:10:01.439Z,1007.36
2023-02-26T02:10:41.968Z,1007.38
2023-02-26T02:11:22.453Z,1007.4
2023-02-26T02:12:02.942Z,1007.35
2023-02-26T02:12:43.437Z,1007.38
2023-02-26T02:13:23.932Z,1007.4
2023-02-26T02:14:04.406Z,1007.43
2023-02-26T02:14:44.924Z,1007.42
2023-02-26T02:15:25.411Z,1007.44
2023-02-26T02:16:05.918Z,1007.41
2023-02-26T02:16:46.453Z,1007.46
2023-02-26T02:17:26.870Z,1007.48
2023-02-26T02:18:07.397Z,1007.54
2023-02-26T02:18:47.930Z,1007.54
2023-02-26T02:19:28.338Z,1007.55
2023-02-26T02:20:08.802Z,1007.55
2023-02-26T02:20:49.317Z,1007.54
2023-02-26T02:21:29.827Z,1007.55
2023-02-26T02:22:10.262Z,1007.54
2023-02-26T02:22:50.742Z,1007.5
2023-02-26T02:26:05.484Z,1007.51
2023-02-26T02:26:45.958Z,1007.51
2023-02-26T02:27:26.465Z,1007.52
2023-02-26T02:28:07.010Z,1007.49
2023-02-26T02:28:47.396Z,1007.51
2023-02-26T02:29:27.928Z,1007.5
2023-02-26T02:30:08.341Z,1007.47
2023-02-26T02:30:48.917Z,1007.49
2023-02-26T02:31:29.381Z,1007.5
2023-02-26T02:32:10.048Z,1007.49
2023-02-26T02:32:50.362Z,1007.5
2023-02-26T02:33:30.789Z,1007.52
2023-02-26T02:34:11.240Z,1007.54
2023-02-26T02:34:51.721Z,1007.51
2023-02-26T02:35:32.153Z,1007.57
2023-02-26T02:36:12.618Z,1007.55
2023-02-26T02:36:53.110Z,1007.57
2023-02-26T02:37:33.584Z,1007.57
2023-02-26T02:38:14.069Z,1007.55
2023-02-26T02:38:54.588Z,1007.59
2023-02-26T02:39:35.028Z,1007.62
2023-02-26T02:40:15.523Z,1007.59
2023-02-26T02:40:55.969Z,1007.61
2023-02-26T02:41:36.454Z,1007.67
2023-02-26T02:42:16.925Z,1007.69
2023-02-26T02:42:57.410Z,1007.72
2023-02-26T02:43:37.887Z,1007.77
2023-02-26T02:44:18.369Z,1007.79
2023-02-26T02:44:58.868Z,1007.78
2023-02-26T02:45:39.478Z,1007.8
2023-02-26T02:46:19.982Z,1007.82
2023-02-26T02:47:00.372Z,1007.84
2023-02-26T02:47:40.832Z,1007.84
2023-02-26T02:48:21.336Z,1007.85
2023-02-26T02:49:01.841Z,1007.83
2023-02-26T02:49:42.315Z,1007.85
2023-02-26T02:50:22.830Z,1007.84
2023-02-26T02:51:03.317Z,1007.84
2023-02-26T02:51:43.831Z,1007.85
2023-02-26T02:52:24.304Z,1007.83
2023-02-26T02:53:04.807Z,1007.83
2023-02-26T02:53:45.267Z,1007.85
2023-02-26T02:54:25.755Z,1007.82
2023-02-26T02:55:06.248Z,1007.84
2023-02-26T02:55:46.716Z,1007.84
2023-02-26T02:56:27.605Z,1007.86
2023-02-26T02:57:07.782Z,1007.9
2023-02-26T02:57:48.175Z,1007.86
2023-02-26T02:58:28.637Z,1007.85
2023-02-26T02:59:09.176Z,1007.87
2023-02-26T02:59:49.617Z,1007.87
2023-02-26T03:01:10.635Z,1007.83
2023-02-26T03:01:51.127Z,1007.82
2023-02-26T03:02:31.650Z,1007.84
2023-02-26T03:03:12.099Z,1007.84
2023-02-26T03:03:52.621Z,1007.89
2023-02-26T03:05:50.253Z,1007.85
2023-02-26T03:06:30.909Z,1007.86
2023-02-26T03:07:11.341Z,1007.87
2023-02-26T03:07:51.791Z,1007.85
2023-02-26T03:08:32.319Z,1007.91
2023-02-26T03:09:12.818Z,1007.89
2023-02-26T03:09:53.290Z,1007.9
2023-02-26T03:10:33.829Z,1007.89
2023-02-26T03:11:14.279Z,1007.9
2023-02-26T03:11:54.783Z,1007.91
2023-02-26T03:12:35.283Z,1007.97
2023-02-26T03:13:15.796Z,1007.95
2023-02-26T03:13:56.281Z,1008.02
2023-02-26T03:14:36.780Z,1007.93
2023-02-26T03:15:17.258Z,1007.96
2023-02-26T03:15:57.790Z,1007.94
2023-02-26T03:16:38.323Z,1007.99
2023-02-26T03:17:18.807Z,1007.99
2023-02-26T03:17:59.286Z,1008.02
2023-02-26T03:18:39.810Z,1008.03
2023-02-26T03:19:20.282Z,1008.04
2023-02-26T03:20:00.781Z,1008
2023-02-26T03:20:41.237Z,1008.03
2023-02-26T03:21:21.768Z,1008.08
2023-02-26T03:22:02.256Z,1008.07
2023-02-26T03:22:42.785Z,1008.1
2023-02-26T03:23:23.310Z,1008.04
2023-02-26T03:24:03.796Z,1008.09
2023-02-26T03:24:44.347Z,1008.11
2023-02-26T03:25:24.792Z,1008.09
2023-02-26T03:26:05.289Z,1008.08
2023-02-26T03:26:45.803Z,1008.04
2023-02-26T03:27:26.345Z,1008.07
2023-02-26T03:28:06.814Z,1008.06
2023-02-26T03:28:47.308Z,1008.09
2023-02-26T03:29:27.843Z,1008.05
2023-02-26T03:30:08.341Z,1008.08
2023-02-26T03:30:48.848Z,1008.09
2023-02-26T03:31:29.480Z,1008.15
2023-02-26T03:32:10.045Z,1008.12
2023-02-26T03:32:50.478Z,1008.15
2023-02-26T03:34:11.444Z,1008.19
2023-02-26T03:34:51.919Z,1008.2
2023-02-26T03:35:32.432Z,1008.19
2023-02-26T03:36:12.902Z,1008.17
2023-02-26T03:36:53.460Z,1008.22
2023-02-26T03:37:33.951Z,1008.23
2023-02-26T03:38:14.454Z,1008.2
2023-02-26T03:38:54.938Z,1008.25
2023-02-26T03:39:35.455Z,1008.22
2023-02-26T03:40:15.973Z,1008.21
2023-02-26T03:40:56.476Z,1008.22
2023-02-26T03:41:37.018Z,1008.24
2023-02-26T03:42:17.497Z,1008.26
2023-02-26T03:42:58.006Z,1008.21
2023-02-26T03:43:38.580Z,1008.26
2023-02-26T03:44:19.052Z,1008.25
2023-02-26T03:44:59.570Z,1008.27
2023-02-26T03:45:40.141Z,1008.25
2023-02-26T03:47:01.021Z,1008.29
2023-02-26T03:47:41.538Z,1008.31
2023-02-26T03:48:22.014Z,1008.32
2023-02-26T03:49:02.540Z,1008.32
2023-02-26T03:49:42.982Z,1008.32
2023-02-26T03:50:23.466Z,1008.34
2023-02-26T03:51:04.022Z,1008.34
2023-02-26T03:51:44.476Z,1008.33
2023-02-26T03:52:24.972Z,1008.36
2023-02-26T03:53:05.478Z,1008.38
2023-02-26T03:53:45.975Z,1008.41
2023-02-26T03:54:26.616Z,1008.4
2023-02-26T03:55:07.144Z,1008.41
2023-02-26T03:55:47.715Z,1008.47
2023-02-26T03:56:28.212Z,1008.43
2023-02-26T03:57:08.719Z,1008.45
2023-02-26T03:57:49.219Z,1008.47
2023-02-26T03:58:29.687Z,1008.45
2023-02-26T03:59:10.196Z,1008.41
2023-02-26T03:59:50.716Z,1008.43
2023-02-26T04:00:31.194Z,1008.48
2023-02-26T04:01:11.700Z,1008.49
2023-02-26T04:01:52.175Z,1008.5
2023-02-26T04:05:05.926Z,1008.57
2023-02-26T04:05:46.404Z,1008.56
2023-02-26T04:06:27.160Z,1008.58
2023-02-26T04:07:07.424Z,1008.61
2023-02-26T04:07:47.877Z,1008.68
2023-02-26T04:08:28.328Z,1008.66
2023-02-26T04:09:08.826Z,1008.64
2023-02-26T04:09:49.331Z,1008.67
2023-02-26T04:10:29.854Z,1008.68
2023-02-26T04:11:10.355Z,1008.74
2023-02-26T04:11:50.858Z,1008.79
2023-02-26T04:12:31.371Z,1008.75
2023-02-26T04:13:11.869Z,1008.77
2023-02-26T04:13:52.365Z,1008.8
2023-02-26T04:14:32.875Z,1008.79
2023-02-26T04:15:13.388Z,1008.78
2023-02-26T04:15:53.914Z,1008.79
2023-02-26T04:16:34.424Z,1008.78
2023-02-26T04:17:14.945Z,1008.76
2023-02-26T04:17:56.228Z,1008.78
2023-02-26T04:18:36.729Z,1008.7
2023-02-26T04:19:17.242Z,1008.77
2023-02-26T04:19:57.718Z,1008.76
2023-02-26T04:20:38.190Z,1008.74
2023-02-26T04:21:18.694Z,1008.76
2023-02-26T04:21:59.191Z,1008.72
2023-02-26T04:22:39.702Z,1008.73
2023-02-26T04:23:20.225Z,1008.7
2023-02-26T04:24:00.719Z,1008.7
2023-02-26T04:24:41.222Z,1008.7
2023-02-26T04:25:21.706Z,1008.73
2023-02-26T04:26:02.156Z,1008.67
2023-02-26T04:26:42.627Z,1008.71
2023-02-26T04:27:23.131Z,1008.71
2023-02-26T04:28:03.633Z,1008.75
2023-02-26T04:28:44.118Z,1008.73
2023-02-26T04:29:24.605Z,1008.73
2023-02-26T04:30:05.108Z,1008.72
2023-02-26T04:30:45.633Z,1008.75
2023-02-26T04:31:26.091Z,1008.75
2023-02-26T04:32:06.615Z,1008.7
2023-02-26T04:32:47.049Z,1008.66
2023-02-26T04:33:27.567Z,1008.67
2023-02-26T04:34:48.535Z,1008.64
2023-02-26T04:35:29.024Z,1008.64
2023-02-26T04:36:09.524Z,1008.66
2023-02-26T04:36:50.016Z,1008.7
2023-02-26T04:37:30.480Z,1008.68
2023-02-26T04:38:10.951Z,1008.69
2023-02-26T04:38:51.501Z,1008.71
2023-02-26T04:39:31.984Z,1008.7
2023-02-26T04:40:12.521Z,1008.73
2023-02-26T04:40:53.005Z,1008.73
2023-02-26T04:41:33.546Z,1008.75
2023-02-26T04:42:14.060Z,1008.78
2023-02-26T04:42:55.411Z,1008.79
2023-02-26T04:43:35.048Z,1008.75
2023-02-26T04:44:15.563Z,1008.79
2023-02-26T04:44:56.045Z,1008.8
2023-02-26T04:45:36.560Z,1008.78
2023-02-26T04:46:17.143Z,1008.79
2023-02-26T04:46:57.600Z,1008.84
2023-02-26T04:47:38.085Z,1008.88
2023-02-26T04:48:18.600Z,1008.82
2023-02-26T04:49:39.600Z,1008.87
2023-02-26T04:50:20.097Z,1008.88
2023-02-26T04:51:00.619Z,1008.9
2023-02-26T04:51:41.194Z,1008.92
2023-02-26T04:52:21.719Z,1008.92
2023-02-26T04:53:02.238Z,1008.95
2023-02-26T04:53:42.790Z,1008.97
2023-02-26T04:54:23.280Z,1008.99
2023-02-26T04:55:03.758Z,1008.96
2023-02-26T04:55:44.257Z,1009
2023-02-26T04:56:25.154Z,1008.97
2023-02-26T04:57:05.270Z,1009.03
2023-02-26T04:57:45.785Z,1008.99
2023-02-26T04:58:26.281Z,1009.03
2023-02-26T04:59:06.760Z,1009.04
2023-02-26T04:59:47.254Z,1009.06
2023-02-26T05:00:27.743Z,1009.04
2023-02-26T05:01:08.325Z,1009.04
2023-02-26T05:01:48.911Z,1009.06
2023-02-26T05:02:29.983Z,1009.1
2023-02-26T05:03:10.477Z,1009.12
2023-02-26T05:03:50.965Z,1009.11
2023-02-26T05:04:31.484Z,1009.11
2023-02-26T05:05:11.910Z,1009.13
2023-02-26T05:05:52.413Z,1009.15
2023-02-26T05:06:32.864Z,1009.17
2023-02-26T05:07:13.376Z,1009.15
2023-02-26T05:07:53.873Z,1009.18
2023-02-26T05:08:34.340Z,1009.22
2023-02-26T05:09:14.847Z,1009.21
2023-02-26T05:09:55.408Z,1009.2
2023-02-26T05:10:35.889Z,1009.19
2023-02-26T05:11:16.302Z,1009.15
2023-02-26T05:11:56.804Z,1009.22
2023-02-26T05:12:37.285Z,1009.17
2023-02-26T05:13:17.806Z,1009.19
2023-02-26T05:14:38.777Z,1009.26
2023-02-26T05:15:19.257Z,1009.25
2023-02-26T05:15:59.776Z,1009.26
2023-02-26T05:16:40.921Z,1009.28
2023-02-26T05:17:20.720Z,1009.27
2023-02-26T05:18:01.204Z,1009.25
2023-02-26T05:18:41.669Z,1009.28
2023-02-26T05:19:22.220Z,1009.29
2023-02-26T05:20:02.714Z,1009.26
2023-02-26T05:20:43.201Z,1009.25
2023-02-26T05:22:04.188Z,1009.28
2023-02-26T05:22:44.688Z,1009.28
2023-02-26T05:23:25.180Z,1009.3
2023-02-26T05:24:05.648Z,1009.34
2023-02-26T05:24:46.139Z,1009.33
2023-02-26T05:25:26.666Z,1009.33
2023-02-26T05:26:07.114Z,1009.36
2023-02-26T05:26:47.623Z,1009.36
2023-02-26T05:27:28.126Z,1009.38
2023-02-26T05:28:08.602Z,1009.37
2023-02-26T05:28:49.120Z,1009.35
2023-02-26T05:29:29.622Z,1009.38
2023-02-26T05:30:10.160Z,1009.39
2023-02-26T05:30:50.744Z,1009.4
2023-02-26T05:31:31.167Z,1009.38
2023-02-26T05:32:11.688Z,1009.41
2023-02-26T05:32:52.146Z,1009.41
2023-02-26T05:33:32.681Z,1009.44
2023-02-26T05:34:13.172Z,1009.43
2023-02-26T05:34:53.835Z,1009.46
2023-02-26T05:35:34.328Z,1009.46
2023-02-26T05:36:14.838Z,1009.48
2023-02-26T05:36:55.317Z,1009.53
2023-02-26T05:37:35.792Z,1009.5
2023-02-26T05:38:16.323Z,1009.52
2023-02-26T05:39:37.317Z,1009.51
2023-02-26T05:40:17.770Z,1009.52
2023-02-26T05:40:58.346Z,1009.56
2023-02-26T05:41:38.808Z,1009.56
2023-02-26T05:42:19.280Z,1009.62
2023-02-26T05:42:59.760Z,1009.6
2023-02-26T05:43:40.281Z,1009.58
2023-02-26T05:44:20.761Z,1009.61
2023-02-26T05:45:01.297Z,1009.6
2023-02-26T05:45:41.783Z,1009.38
2023-02-26T05:46:22.311Z,1009.63
2023-02-26T05:47:02.895Z,1009.59
2023-02-26T05:47:43.326Z,1009.58
2023-02-26T05:48:23.848Z,1009.59
2023-02-26T05:49:04.373Z,1009.61
2023-02-26T05:49:44.843Z,1009.62
2023-02-26T05:50:25.348Z,1009.6
2023-02-26T05:51:05.897Z,1009.59
2023-02-26T05:51:46.330Z,1009.6
2023-02-26T05:52:27.433Z,1009.61
2023-02-26T06:30:33.538Z,1010.23
2023-02-26T06:31:13.883Z,1010.22
2023-02-26T06:31:54.432Z,1010.24
2023-02-26T06:32:34.890Z,1010.24
2023-02-26T06:33:15.398Z,1010.28
2023-02-26T06:33:55.869Z,1010.27
2023-02-26T06:34:36.367Z,1010.31
2023-02-26T06:35:16.919Z,1010.29
2023-02-26T06:35:57.379Z,1010.28
2023-02-26T06:36:37.899Z,1010.29
2023-02-26T06:37:21.072Z,1010.29
2023-02-26T06:38:01.595Z,1010.36
2023-02-26T06:38:42.041Z,1010.35
2023-02-26T06:39:22.577Z,1010.36
2023-02-26T06:40:03.140Z,1010.34
2023-02-26T06:40:43.669Z,1010.36
2023-02-26T06:41:24.103Z,1010.39
2023-02-26T06:42:04.594Z,1010.38
2023-02-26T06:42:45.137Z,1010.46
2023-02-26T06:43:25.643Z,1010.45
2023-02-26T06:44:06.128Z,1010.49
2023-02-26T06:44:46.574Z,1010.48
2023-02-26T06:45:27.065Z,1010.53
2023-02-26T06:46:08.562Z,1010.55
2023-02-26T06:46:48.912Z,1010.56
2023-02-26T06:47:29.437Z,1010.58
2023-02-26T06:48:09.914Z,1010.59
2023-02-26T06:48:50.434Z,1010.59
2023-02-26T06:49:30.911Z,1010.59
2023-02-26T06:50:11.413Z,1010.56
2023-02-26T06:50:51.912Z,1010.62
2023-02-26T06:51:32.432Z,1010.61
2023-02-26T06:52:12.905Z,1010.69
2023-02-26T06:52:53.386Z,1010.73
2023-02-26T06:53:33.937Z,1010.76
2023-02-26T06:54:14.410Z,1010.71
2023-02-26T06:54:54.902Z,1010.76
2023-02-26T06:55:35.417Z,1010.76
2023-02-26T06:56:15.933Z,1010.8
2023-02-26T06:57:36.935Z,1010.82
2023-02-26T06:58:17.424Z,1010.85
2023-02-26T06:58:57.899Z,1010.86
2023-02-26T06:59:38.368Z,1010.86
2023-02-26T07:00:18.999Z,1010.9
2023-02-26T07:00:59.408Z,1010.91
2023-02-26T07:01:39.910Z,1010.86
2023-02-26T07:02:20.401Z,1010.94
2023-02-26T07:03:00.901Z,1010.9
2023-02-26T07:03:41.372Z,1010.96
2023-02-26T07:05:02.368Z,1010.97
2023-02-26T07:05:42.867Z,1011
2023-02-26T07:06:27.617Z,1011.05
2023-02-26T07:07:04.420Z,1011.03
2023-02-26T07:07:44.946Z,1011.01
2023-02-26T07:08:25.452Z,1011.05
2023-02-26T07:09:06.075Z,1011.08
2023-02-26T07:09:46.456Z,1011.05
2023-02-26T07:10:26.944Z,1011.07
2023-02-26T07:11:07.449Z,1011.05
2023-02-26T07:12:28.483Z,1011.03
2023-02-26T07:13:09.048Z,1011.02
2023-02-26T07:13:49.533Z,1011.08
2023-02-26T07:14:30.048Z,1011.08
2023-02-26T07:15:10.521Z,1011.12
2023-02-26T07:15:51.049Z,1011.09
2023-02-26T07:16:31.587Z,1011.09
2023-02-26T07:17:12.140Z,1011.11
2023-02-26T07:17:52.538Z,1011.11
2023-02-26T07:18:33.030Z,1011.12
2023-02-26T07:19:54.067Z,1011.17
2023-02-26T07:20:34.545Z,1011.2
2023-02-26T07:21:15.107Z,1011.18
2023-02-26T07:21:55.659Z,1011.18
2023-02-26T07:22:36.098Z,1011.28
2023-02-26T07:23:16.591Z,1011.25
2023-02-26T07:23:57.094Z,1011.29
2023-02-26T07:24:37.601Z,1011.31
2023-02-26T07:25:18.084Z,1011.29
2023-02-26T07:25:58.607Z,1011.32
2023-02-26T07:26:39.455Z,1011.34
2023-02-26T07:27:20.039Z,1011.33
2023-02-26T07:28:00.480Z,1011.39
2023-02-26T07:28:41.003Z,1011.38
2023-02-26T07:29:21.512Z,1011.33
2023-02-26T07:30:01.963Z,1011.33
2023-02-26T07:30:42.605Z,1011.36
2023-02-26T07:31:23.048Z,1011.39
2023-02-26T07:32:03.582Z,1011.45
2023-02-26T07:32:44.130Z,1011.44
2023-02-26T07:33:24.538Z,1011.48
2023-02-26T07:34:05.035Z,1011.54
2023-02-26T07:34:45.496Z,1011.54
2023-02-26T07:35:26.054Z,1011.59
2023-02-26T07:36:06.569Z,1011.59
2023-02-26T07:36:47.021Z,1011.59
2023-02-26T07:37:27.522Z,1011.66
2023-02-26T07:38:08.043Z,1011.62
2023-02-26T07:38:48.530Z,1011.6
2023-02-26T07:39:29.042Z,1011.65
2023-02-26T07:40:09.599Z,1011.62
2023-02-26T07:40:50.043Z,1011.64
2023-02-26T07:41:30.533Z,1011.66
2023-02-26T07:42:11.017Z,1011.65
2023-02-26T07:42:51.554Z,1011.64
2023-02-26T07:43:32.022Z,1011.64
2023-02-26T07:44:12.518Z,1011.67
2023-02-26T07:44:53.013Z,1011.71
2023-02-26T07:45:33.501Z,1011.72
2023-02-26T07:46:14.115Z,1011.7
2023-02-26T07:47:35.108Z,1011.68
2023-02-26T07:48:17.627Z,1011.72
2023-02-26T07:48:56.189Z,1011.72
2023-02-26T07:49:36.714Z,1011.74
2023-02-26T07:50:17.191Z,1011.72
2023-02-26T07:50:58.554Z,1011.7
2023-02-26T07:51:39.045Z,1011.72
2023-02-26T07:52:19.533Z,1011.78
2023-02-26T07:53:00.001Z,1011.78
2023-02-26T07:53:40.529Z,1011.77
2023-02-26T07:54:21.015Z,1011.85
2023-02-26T07:55:01.849Z,1011.85
2023-02-26T07:55:42.546Z,1011.87
2023-02-26T07:56:23.194Z,1011.9
2023-02-26T07:57:03.910Z,1011.87
2023-02-26T07:57:44.622Z,1011.83
2023-02-26T07:58:25.714Z,1011.85
2023-02-26T07:59:06.233Z,1011.87
2023-02-26T07:59:46.786Z,1011.92
2023-02-26T08:00:27.385Z,1011.92
2023-02-26T08:01:08.568Z,1011.91
2023-02-26T08:01:49.068Z,1011.93
2023-02-26T08:02:29.858Z,1011.98
2023-02-26T08:03:10.555Z,1011.98
2023-02-26T08:03:51.142Z,1011.96
2023-02-26T08:04:31.732Z,1011.94
2023-02-26T08:05:12.941Z,1011.96
2023-02-26T08:05:52.948Z,1011.97
2023-02-26T08:06:33.484Z,1012
2023-02-26T08:07:14.013Z,1011.98
2023-02-26T08:07:54.574Z,1012
2023-02-26T08:08:35.102Z,1012.01
2023-02-26T08:09:17.786Z,1012.02
2023-02-26T08:09:58.277Z,1012.01
2023-02-26T08:10:40.542Z,1012.03
2023-02-26T08:11:19.290Z,1012.09
2023-02-26T08:12:40.329Z,1012.08
2023-02-26T08:13:20.962Z,1012.13
2023-02-26T08:14:01.478Z,1012.1
2023-02-26T08:14:42.452Z,1012.11
2023-02-26T08:15:22.931Z,1012.11
2023-02-26T08:16:03.468Z,1012.12
2023-02-26T08:16:43.938Z,1012.21
2023-02-26T08:17:24.421Z,1012.23
2023-02-26T08:18:04.884Z,1012.23
2023-02-26T08:18:45.546Z,1012.21
2023-02-26T08:19:26.157Z,1012.25
2023-02-26T08:20:06.626Z,1012.25
2023-02-26T08:20:47.657Z,1012.23
2023-02-26T08:21:28.096Z,1012.24
2023-02-26T08:22:08.632Z,1012.26
2023-02-26T08:22:49.158Z,1012.23
2023-02-26T08:23:30.110Z,1012.22
2023-02-26T08:24:10.596Z,1012.24
2023-02-26T08:24:51.134Z,1012.25
2023-02-26T08:25:31.612Z,1012.32
2023-02-26T08:26:12.099Z,1012.28
2023-02-26T08:26:52.595Z,1012.28
2023-02-26T08:27:33.197Z,1012.3
2023-02-26T08:28:13.722Z,1012.28
2023-02-26T08:28:54.374Z,1012.34
2023-02-26T08:30:15.568Z,1012.32
2023-02-26T08:30:56.829Z,1012.3
2023-02-26T08:31:37.357Z,1012.29
2023-02-26T08:32:17.729Z,1012.35
2023-02-26T08:32:58.118Z,1012.32
2023-02-26T08:33:38.650Z,1012.27
2023-02-26T08:34:19.299Z,1012.29
2023-02-26T08:35:00.814Z,1012.29
2023-02-26T08:35:41.611Z,1012.28
2023-02-26T08:36:22.089Z,1012.31
2023-02-26T08:37:02.624Z,1012.29
2023-02-26T08:37:43.138Z,1012.32
2023-02-26T08:38:23.579Z,1012.31
2023-02-26T08:39:04.115Z,1012.3
2023-02-26T08:40:25.125Z,1012.33
2023-02-26T08:41:05.601Z,1012.34
2023-02-26T08:41:46.076Z,1012.33
2023-02-26T08:42:26.586Z,1012.32
2023-02-26T08:43:07.101Z,1012.32
2023-02-26T08:43:47.610Z,1012.35
2023-02-26T08:44:28.624Z,1012.36
2023-02-26T08:45:08.690Z,1012.35
2023-02-26T08:48:08.493Z,1012.33
2023-02-26T08:48:47.949Z,1012.34
2023-02-26T08:49:28.311Z,1012.35
2023-02-26T08:50:08.843Z,1012.4
2023-02-26T08:50:52.710Z,1012.4
2023-02-26T08:51:33.058Z,1012.41
2023-02-26T08:52:54.030Z,1012.42
2023-02-26T08:53:34.985Z,1012.44
2023-02-26T08:54:15.522Z,1012.48
2023-02-26T08:54:57.550Z,1012.48
2023-02-26T08:55:38.126Z,1012.47
2023-02-26T08:56:18.609Z,1012.49
2023-02-26T08:56:59.110Z,1012.46
2023-02-26T08:57:39.606Z,1012.49
2023-02-26T08:58:20.134Z,1012.52
2023-02-26T08:59:00.626Z,1012.53
2023-02-26T08:59:41.245Z,1012.53
2023-02-26T09:00:21.742Z,1012.55
2023-02-26T09:01:02.265Z,1012.54
2023-02-26T09:01:42.813Z,1012.61
2023-02-26T09:02:23.289Z,1012.6
2023-02-26T09:03:03.802Z,1012.64
2023-02-26T09:03:44.365Z,1012.6
2023-02-26T09:04:24.777Z,1012.61
2023-02-26T09:05:05.288Z,1012.62
2023-02-26T09:05:46.609Z,1012.63
2023-02-26T09:06:27.164Z,1012.66
2023-02-26T09:07:07.210Z,1012.72
2023-02-26T09:07:47.766Z,1012.71
2023-02-26T09:08:28.409Z,1012.71
2023-02-26T09:09:08.911Z,1012.71
2023-02-26T09:13:05.190Z,1012.74
2023-02-26T09:13:45.642Z,1012.74
2023-02-26T09:14:26.614Z,1012.75
2023-02-26T09:15:07.081Z,1012.76
2023-02-26T09:15:47.573Z,1012.76
2023-02-26T09:16:29.226Z,1012.75
2023-02-26T09:17:09.383Z,1012.75
2023-02-26T09:17:49.803Z,1012.75
2023-02-26T09:18:30.519Z,1012.73
2023-02-26T09:19:11.082Z,1012.72
2023-02-26T09:19:51.784Z,1012.71
2023-02-26T09:20:32.651Z,1012.74
2023-02-26T09:21:13.117Z,1012.76
2023-02-26T09:21:53.610Z,1012.77
2023-02-26T09:22:34.456Z,1012.76
2023-02-26T09:23:15.029Z,1012.71
2023-02-26T09:23:55.441Z,1012.76
2023-02-26T09:24:36.009Z,1012.77
2023-02-26T09:25:16.444Z,1012.8
2023-02-26T09:25:57.908Z,1012.77
2023-02-26T09:26:38.633Z,1012.82
2023-02-26T09:27:59.743Z,1012.79
2023-02-26T09:28:40.192Z,1012.76
2023-02-26T09:29:20.607Z,1012.82
2023-02-26T09:30:01.089Z,1012.87
2023-02-26T09:30:41.598Z,1012.83
2023-02-26T09:31:22.183Z,1012.88
2023-02-26T09:32:02.752Z,1012.88
2023-02-26T09:32:43.185Z,1012.88
2023-02-26T09:33:23.728Z,1012.93
2023-02-26T09:34:04.621Z,1012.89
2023-02-26T09:35:26.719Z,1012.9
2023-02-26T09:36:07.346Z,1012.9
2023-02-26T09:36:48.024Z,1012.92
2023-02-26T09:37:28.928Z,1012.88
2023-02-26T09:38:09.438Z,1012.91
2023-02-26T09:38:50.173Z,1012.88
2023-02-26T09:39:30.796Z,1012.93
2023-02-26T09:40:11.312Z,1012.96
2023-02-26T09:40:51.773Z,1013.03
2023-02-26T09:43:50.529Z,1012.96
2023-02-26T09:44:31.134Z,1012.98
2023-02-26T09:45:11.598Z,1012.98
2023-02-26T09:45:52.257Z,1012.97
2023-02-26T09:46:32.765Z,1012.97
2023-02-26T09:47:13.286Z,1013.03
2023-02-26T09:47:53.879Z,1013.05
2023-02-26T09:48:34.364Z,1013.11
2023-02-26T09:49:14.885Z,1013.05
2023-02-26T09:49:55.382Z,1013.04
2023-02-26T09:50:35.907Z,1013.04